Time;durP1;ratioP1;P1;durP2;ratioP2;P2;SDS_P1;SDS_P2;PMS_P1;PMS_P2;Temp;Humidity;BMP_temperature;BMP_pressure;BME280_temperature;BME280_humidity;BME280_pressure;Samples;Min_cycle;Max_cycle;Signal;HPM_P1;HPM_P2
2022/08/03 00:02:15;;;;;;;7.40;2.80;;;;;;;24.76;52.36;99681.53;5062253;28;20072;-73
2022/08/03 00:04:40;;;;;;;4.03;2.70;;;;;;;24.62;52.58;99685.72;5061959;28;20368;-73
2022/08/03 00:07:06;;;;;;;7.10;2.85;;;;;;;24.51;52.69;99684.00;5063227;28;20044;-73
2022/08/03 00:09:31;;;;;;;5.22;2.55;;;;;;;24.45;52.82;99675.00;5067041;28;20036;-73
2022/08/03 00:11:57;;;;;;;10.13;2.80;;;;;;;24.41;53.11;99678.47;5083062;28;20028;-73
2022/08/03 00:14:22;;;;;;;4.43;2.58;;;;;;;24.41;53.11;99675.75;5078000;28;20032;-73
2022/08/03 00:16:48;;;;;;;6.00;2.83;;;;;;;24.47;52.43;99680.16;5062296;28;20386;-73
2022/08/03 00:19:13;;;;;;;3.45;2.42;;;;;;;24.57;52.21;99677.56;5063522;28;20031;-72
2022/08/03 00:21:38;;;;;;;3.22;2.40;;;;;;;24.63;52.21;99681.13;5063680;28;20260;-73
2022/08/03 00:24:04;;;;;;;3.10;2.28;;;;;;;24.72;51.60;99675.00;5062692;28;20035;-73
2022/08/03 00:26:30;;;;;;;4.75;2.20;;;;;;;24.71;51.92;99681.50;5062937;28;20075;-73
2022/08/03 00:28:55;;;;;;;4.72;2.65;;;;;;;24.77;52.29;99677.75;5061831;28;20032;-73
2022/08/03 00:31:21;;;;;;;5.13;2.42;;;;;;;24.91;51.97;99678.16;5062350;28;20037;-73
2022/08/03 00:33:46;;;;;;;5.75;2.60;;;;;;;25.03;51.46;99675.34;5065043;28;20021;-73
2022/08/03 00:36:12;;;;;;;3.25;2.22;;;;;;;24.89;51.58;99676.78;5062242;28;20033;-73
2022/08/03 00:38:37;;;;;;;5.82;2.33;;;;;;;24.75;52.46;99677.19;5062943;28;20310;-73
2022/08/03 00:41:03;;;;;;;3.70;2.40;;;;;;;24.73;53.02;99673.94;5063094;28;20045;-73
2022/08/03 00:43:28;;;;;;;4.07;2.30;;;;;;;24.69;52.44;99666.56;5061615;28;20066;-73
2022/08/03 00:45:54;;;;;;;2.95;2.03;;;;;;;24.78;52.42;99678.56;5061820;28;20040;-73
2022/08/03 00:48:19;;;;;;;1.90;1.70;;;;;;;24.63;52.45;99673.00;5060911;28;20033;-73
2022/08/03 00:50:46;;;;;;;4.65;2.25;;;;;;;24.69;52.76;99689.06;5062192;28;20032;-73
2022/08/03 00:53:13;;;;;;;4.43;2.58;;;;;;;24.72;52.32;99685.00;5061853;28;20037;-73
2022/08/03 00:55:39;;;;;;;8.57;2.80;;;;;;;24.75;52.22;99693.44;5061303;28;20040;-73
2022/08/03 00:58:05;;;;;;;1.88;1.60;;;;;;;24.76;52.27;99684.25;5062849;28;20074;-73
2022/08/03 01:00:34;;;;;;;2.70;1.85;;;;;;;24.66;52.82;99688.75;5062245;28;20225;-73
2022/08/03 01:03:00;;;;;;;4.13;2.13;;;;;;;24.74;52.89;99680.97;5061691;28;20253;-73
2022/08/03 01:05:26;;;;;;;3.53;2.13;;;;;;;24.75;52.71;99688.03;5060697;28;20333;-73
2022/08/03 01:08:03;;;;;;;11.88;2.20;;;;;;;24.61;53.03;99689.50;5061906;28;20044;-73
2022/08/03 01:10:59;;;;;;;4.18;2.30;;;;;;;24.69;52.97;99690.94;5062536;28;20045;-73
2022/08/03 01:13:40;;;;;;;5.30;2.20;;;;;;;24.55;53.64;99687.81;5061276;28;20035;-73
2022/08/03 01:16:22;;;;;;;2.53;2.00;;;;;;;24.49;53.85;99692.38;5059087;28;20037;-73
2022/08/03 01:19:13;;;;;;;3.78;1.90;;;;;;;24.28;54.54;99692.38;5059187;28;20044;-73
2022/08/03 01:21:38;;;;;;;4.68;2.15;;;;;;;24.32;54.44;99693.53;5061905;28;20214;-73
2022/08/03 01:24:33;;;;;;;9.98;2.35;;;;;;;24.40;54.12;99693.88;5061731;28;20040;-73
2022/08/03 01:27:04;;;;;;;2.72;2.30;;;;;;;24.39;54.46;99697.66;5061076;28;20029;-73
2022/08/03 01:29:44;;;;;;;3.40;2.10;;;;;;;24.28;54.57;99695.91;5056719;28;20326;-73
2022/08/03 01:32:24;;;;;;;3.38;2.50;;;;;;;24.43;53.92;99698.78;5057752;28;20025;-72
2022/08/03 01:34:57;;;;;;;6.72;2.80;;;;;;;24.44;53.70;99691.50;5061405;28;20112;-73
2022/08/03 01:37:49;;;;;;;4.47;2.40;;;;;;;24.47;53.93;99697.22;5074914;28;20385;-73
2022/08/03 01:40:16;;;;;;;7.63;2.88;;;;;;;24.33;54.17;99689.75;5060749;28;20239;-73
2022/08/03 01:42:43;;;;;;;3.58;2.38;;;;;;;24.35;53.96;99690.31;5062245;28;20025;-73
2022/08/03 01:45:12;;;;;;;3.70;2.53;;;;;;;24.41;54.00;99692.81;5061683;28;20104;-73
2022/08/03 01:47:39;;;;;;;7.60;2.40;;;;;;;24.52;53.71;99691.03;5060626;28;20084;-73
2022/08/03 01:50:07;;;;;;;3.40;2.70;;;;;;;24.56;53.32;99700.28;5060654;28;20326;-73
2022/08/03 01:52:36;;;;;;;4.25;2.63;;;;;;;24.40;53.48;99688.47;5061011;28;20253;-73
2022/08/03 01:55:02;;;;;;;6.22;2.85;;;;;;;24.24;54.28;99699.34;5060824;28;20392;-73
2022/08/03 01:57:29;;;;;;;5.18;2.65;;;;;;;24.29;54.35;99688.63;5061546;28;20031;-73
2022/08/03 01:59:57;;;;;;;9.25;3.13;;;;;;;24.44;53.85;99686.06;5062070;28;20041;-73
2022/08/03 02:02:24;;;;;;;5.88;3.20;;;;;;;24.62;53.47;99691.16;5061087;28;20045;-73
2022/08/03 02:04:52;;;;;;;7.97;3.03;;;;;;;24.53;53.57;99679.13;5059607;28;20033;-74
2022/08/03 02:07:18;;;;;;;2.80;2.35;;;;;;;24.62;53.23;99695.75;5060332;28;20041;-73
2022/08/03 02:09:48;;;;;;;7.63;2.67;;;;;;;24.66;52.59;99689.56;5060749;28;20657;-73
2022/08/03 02:12:14;;;;;;;3.28;2.67;;;;;;;24.63;53.33;99686.53;5059796;28;20024;-73
2022/08/03 02:14:43;;;;;;;3.67;2.50;;;;;;;24.59;53.36;99688.94;5061271;28;20067;-73
2022/08/03 02:17:11;;;;;;;3.28;2.53;;;;;;;24.60;53.39;99690.59;5061204;28;20075;-73
2022/08/03 02:19:38;;;;;;;5.57;2.78;;;;;;;24.53;53.50;99684.56;5061540;28;20033;-73
2022/08/03 02:22:07;;;;;;;3.63;2.72;;;;;;;24.45;54.15;99693.13;5073501;28;20227;-72
2022/08/03 02:24:32;;;;;;;2.97;2.15;;;;;;;24.52;54.24;99694.56;5060695;28;20036;-73
2022/08/03 02:26:59;;;;;;;5.85;2.60;;;;;;;24.30;55.33;99704.59;5059995;28;20029;-73
2022/08/03 02:29:28;;;;;;;3.78;2.67;;;;;;;24.10;55.85;99707.84;5061259;28;20036;-73
2022/08/03 02:31:57;;;;;;;7.75;3.03;;;;;;;23.78;57.21;99706.84;5059555;28;20344;-73
2022/08/03 02:34:27;;;;;;;5.80;3.20;;;;;;;23.54;57.75;99717.84;5059229;28;20255;-73
2022/08/03 02:36:56;;;;;;;6.88;3.00;;;;;;;23.40;58.31;99705.72;5060692;28;20841;-73
2022/08/03 02:39:24;;;;;;;4.55;3.00;;;;;;;23.37;58.03;99702.69;5060334;28;20039;-73
2022/08/03 02:41:54;;;;;;;3.80;3.08;;;;;;;23.43;57.46;99701.69;5060113;28;20017;-73
2022/08/03 02:44:24;;;;;;;4.72;3.17;;;;;;;23.46;57.85;99715.53;5056647;28;20242;-72
2022/08/03 02:46:54;;;;;;;3.67;3.33;;;;;;;23.48;57.63;99721.50;5062314;28;20257;-73
2022/08/03 02:49:21;;;;;;;6.32;2.75;;;;;;;23.59;57.71;99719.00;5060268;28;20040;-73
2022/08/03 02:51:51;;;;;;;8.95;2.95;;;;;;;23.65;57.52;99715.31;5059998;28;20033;-73
2022/08/03 02:54:18;;;;;;;8.18;3.10;;;;;;;23.72;57.45;99715.94;5060282;28;20328;-73
2022/08/03 02:56:47;;;;;;;6.93;3.20;;;;;;;23.74;57.36;99714.63;5060671;28;20294;-73
2022/08/03 02:59:15;;;;;;;7.80;3.15;;;;;;;23.68;57.37;99712.09;5062177;28;20126;-73
2022/08/03 03:01:41;;;;;;;9.98;3.40;;;;;;;23.60;58.01;99721.44;5060921;28;20330;-74
2022/08/03 03:04:09;;;;;;;20.95;3.67;;;;;;;23.59;57.96;99721.69;5059941;28;20037;-73
2022/08/03 03:06:37;;;;;;;11.07;3.38;;;;;;;23.65;58.60;99721.53;5060855;28;20040;-73
2022/08/03 03:09:02;;;;;;;7.03;3.50;;;;;;;23.52;61.09;99728.06;5060313;28;20029;-73
2022/08/03 03:11:29;;;;;;;7.88;3.25;;;;;;;23.41;60.92;99725.44;5059996;28;20071;-73
2022/08/03 03:13:56;;;;;;;14.00;4.25;;;;;;;23.39;59.48;99722.16;5060512;28;20693;-73
2022/08/03 03:16:24;;;;;;;25.60;3.40;;;;;;;23.52;59.41;99730.75;5072657;28;20051;-73
2022/08/03 03:18:50;;;;;;;7.88;3.47;;;;;;;23.61;59.70;99730.38;5080301;28;20103;-73
2022/08/03 03:21:18;;;;;;;10.88;3.45;;;;;;;23.64;59.58;99721.78;5063855;28;20064;-73
2022/08/03 03:23:45;;;;;;;13.98;3.72;;;;;;;23.63;59.52;99722.84;5060904;28;20036;-73
2022/08/03 03:26:13;;;;;;;12.70;3.75;;;;;;;23.66;58.45;99727.75;5058463;28;20104;-73
2022/08/03 03:28:39;;;;;;;17.30;3.72;;;;;;;23.70;58.14;99735.13;5061334;28;20063;-73
2022/08/03 03:31:05;;;;;;;14.77;3.70;;;;;;;23.67;57.80;99734.78;5059418;28;20040;-73
2022/08/03 03:33:33;;;;;;;13.77;4.45;;;;;;;23.67;57.92;99738.31;5060291;28;20070;-73
2022/08/03 03:35:59;;;;;;;15.70;3.90;;;;;;;23.75;57.90;99735.19;5059634;28;20041;-73
2022/08/03 03:38:24;;;;;;;13.00;3.63;;;;;;;23.75;59.05;99739.78;5058403;28;20053;-73
2022/08/03 03:40:50;;;;;;;9.10;3.75;;;;;;;23.68;59.64;99739.94;5059288;28;20033;-73
2022/08/03 03:43:17;;;;;;;9.88;3.67;;;;;;;23.66;59.61;99743.97;5063617;28;20043;-73
2022/08/03 03:45:44;;;;;;;13.90;4.10;;;;;;;23.73;58.97;99742.72;5063582;28;20375;-73
2022/08/03 03:48:09;;;;;;;18.48;4.40;;;;;;;23.75;59.01;99747.88;5063154;28;20033;-73
2022/08/03 03:50:36;;;;;;;10.38;3.88;;;;;;;23.79;59.04;99755.25;5062365;28;20034;-72
2022/08/03 03:53:03;;;;;;;11.55;3.75;;;;;;;23.78;59.10;99755.50;5064084;28;20027;-73
2022/08/03 03:55:29;;;;;;;14.45;4.22;;;;;;;23.82;58.90;99754.75;5062517;28;20071;-73
2022/08/03 03:57:55;;;;;;;9.68;3.25;;;;;;;23.83;58.23;99751.00;5059605;28;20092;-73
2022/08/03 04:00:21;;;;;;;6.93;3.40;;;;;;;23.89;58.26;99760.81;5061119;28;20039;-73
2022/08/03 04:02:47;;;;;;;15.63;3.70;;;;;;;23.92;57.99;99759.50;5063881;28;20127;-73
2022/08/03 04:11:19;;;;;;;10.88;4.20;;;;;;;23.93;57.38;99744.94;5060755;28;20108;-73
2022/08/03 04:13:44;;;;;;;10.43;4.05;;;;;;;24.11;57.45;99771.69;5063345;28;20307;-73
2022/08/03 04:16:13;;;;;;;8.02;4.22;;;;;;;24.08;57.36;99779.50;5062436;28;20118;-74
2022/08/03 04:18:42;;;;;;;7.28;3.90;;;;;;;24.09;56.92;99783.84;5061940;28;20082;-73
2022/08/03 04:21:10;;;;;;;8.85;3.63;;;;;;;24.11;56.74;99782.50;5063455;28;20154;-73
2022/08/03 04:23:38;;;;;;;13.38;4.07;;;;;;;24.13;57.28;99788.50;5063379;28;20255;-73
2022/08/03 04:26:08;;;;;;;14.10;4.13;;;;;;;24.21;57.08;99784.53;5061917;28;20037;-73
2022/08/03 04:28:36;;;;;;;15.50;4.30;;;;;;;24.03;57.39;99782.13;5062552;28;20060;-73
2022/08/03 04:31:04;;;;;;;11.10;4.63;;;;;;;24.23;56.96;99782.41;5061998;28;20048;-73
2022/08/03 04:33:32;;;;;;;13.27;4.43;;;;;;;24.10;57.07;99793.59;5062141;28;20340;-73
2022/08/03 04:35:59;;;;;;;11.43;4.65;;;;;;;24.23;56.57;99781.59;5062819;28;20041;-73
2022/08/03 04:38:28;;;;;;;11.95;5.20;;;;;;;24.20;56.72;99786.44;5062549;28;20365;-73
2022/08/03 04:40:55;;;;;;;12.65;4.30;;;;;;;24.20;56.51;99788.31;5062287;28;20346;-73
2022/08/03 04:43:22;;;;;;;11.35;4.30;;;;;;;24.22;56.60;99788.06;5063125;28;20020;-73
2022/08/03 04:45:49;;;;;;;8.18;4.22;;;;;;;24.35;55.97;99788.53;5062004;28;20025;-73
2022/08/03 04:48:16;;;;;;;13.32;4.50;;;;;;;24.45;55.65;99787.84;5062842;28;20349;-73
2022/08/03 04:50:41;;;;;;;10.60;3.90;;;;;;;24.50;55.29;99785.22;5062059;28;20060;-74
2022/08/03 04:53:07;;;;;;;19.70;5.18;;;;;;;24.50;55.32;99793.34;5062477;28;20326;-73
2022/08/03 04:55:34;;;;;;;11.48;4.32;;;;;;;24.51;55.22;99797.69;5062641;28;20033;-73
2022/08/03 04:58:00;;;;;;;15.85;4.15;;;;;;;24.58;54.77;99800.19;5062145;28;20044;-73
2022/08/03 05:00:26;;;;;;;9.45;3.85;;;;;;;24.68;54.56;99798.44;5061798;28;20045;-73
2022/08/03 05:02:52;;;;;;;14.93;4.78;;;;;;;24.78;54.05;99795.84;5061031;28;20029;-74
2022/08/03 05:05:18;;;;;;;14.07;5.00;;;;;;;24.80;54.29;99798.28;5064454;28;20033;-73
2022/08/03 05:07:44;;;;;;;14.80;5.07;;;;;;;24.85;53.78;99806.47;5061586;28;20041;-73
2022/08/03 05:10:11;;;;;;;16.13;4.97;;;;;;;24.82;54.11;99798.84;5061009;28;20364;-73
2022/08/03 05:12:37;;;;;;;15.23;6.40;;;;;;;25.05;53.97;99806.75;5062783;28;20341;-73
2022/08/03 05:15:03;;;;;;;13.18;4.63;;;;;;;24.74;53.78;99810.94;5061201;28;20028;-73
2022/08/03 05:17:29;;;;;;;7.70;4.97;;;;;;;24.72;54.53;99810.38;5074272;28;20032;-73
2022/08/03 05:19:55;;;;;;;10.38;5.00;;;;;;;24.69;54.45;99808.19;5062445;28;20028;-73
2022/08/03 05:22:21;;;;;;;8.02;4.22;;;;;;;24.93;53.70;99811.44;5061296;28;20392;-73
2022/08/03 05:24:47;;;;;;;14.52;4.53;;;;;;;24.94;52.87;99807.66;5061695;28;20032;-73
2022/08/03 05:27:21;;;;;;;12.60;4.43;;;;;;;24.94;52.77;99809.53;5075443;28;20039;-73
2022/08/03 05:29:49;;;;;;;9.45;3.83;;;;;;;25.13;52.19;99809.00;5062212;28;20342;-73
2022/08/03 05:32:16;;;;;;;17.67;5.15;;;;;;;25.17;52.16;99811.19;5060671;28;20037;-73
2022/08/03 05:34:42;;;;;;;22.90;5.15;;;;;;;25.10;52.48;99824.94;5061234;28;20044;-73
2022/08/03 05:37:08;;;;;;;15.40;4.72;;;;;;;25.18;52.71;99824.50;5073910;28;20230;-73
2022/08/03 05:39:33;;;;;;;8.50;4.47;;;;;;;25.11;52.76;99819.28;5060053;28;20056;-73
2022/08/03 05:41:59;;;;;;;13.18;3.60;;;;;;;25.28;52.53;99818.34;5061041;28;20269;-74
2022/08/03 05:44:25;;;;;;;7.38;3.50;;;;;;;25.34;52.32;99820.03;5061853;28;20036;-73
2022/08/03 05:46:51;;;;;;;7.47;3.83;;;;;;;25.30;51.96;99825.16;5060109;28;20029;-73
2022/08/03 05:49:17;;;;;;;9.90;3.30;;;;;;;25.41;51.04;99826.88;5062469;28;20091;-73
2022/08/03 05:51:43;;;;;;;10.55;3.17;;;;;;;25.48;51.54;99823.97;5060298;28;20029;-73
2022/08/03 05:54:10;;;;;;;10.55;3.38;;;;;;;25.58;51.20;99823.22;5061507;28;20059;-73
2022/08/03 05:56:36;;;;;;;7.60;3.60;;;;;;;25.43;51.25;99824.72;5060451;28;20096;-73
2022/08/03 05:59:01;;;;;;;9.00;3.42;;;;;;;25.64;51.24;99831.16;5060750;28;20049;-73
2022/08/03 06:01:27;;;;;;;9.10;3.38;;;;;;;25.65;51.24;99830.09;5061331;28;20229;-73
2022/08/03 06:03:52;;;;;;;7.93;3.50;;;;;;;25.73;50.38;99839.66;5074159;28;20025;-73
2022/08/03 06:06:18;;;;;;;9.25;3.60;;;;;;;25.80;50.59;99836.72;5063417;28;20028;-73
2022/08/03 06:08:44;;;;;;;8.10;3.45;;;;;;;25.91;50.03;99852.00;5062628;28;20041;-73
2022/08/03 06:11:11;;;;;;;13.35;3.60;;;;;;;25.97;48.56;99835.50;5059982;28;20029;-73
2022/08/03 06:13:36;;;;;;;5.07;3.00;;;;;;;25.57;48.61;99835.16;5060824;28;20311;-73
2022/08/03 06:16:02;;;;;;;6.45;2.90;;;;;;;25.46;49.01;99850.50;5062103;28;20036;-73
2022/08/03 06:18:28;;;;;;;5.32;2.95;;;;;;;25.56;48.89;99852.50;5062053;28;20142;-73
2022/08/03 06:20:53;;;;;;;5.75;3.38;;;;;;;25.70;48.64;99851.03;5061629;28;20024;-73
2022/08/03 06:23:19;;;;;;;12.32;3.10;;;;;;;25.60;49.86;99850.91;5062111;28;20045;-74
2022/08/03 06:25:44;;;;;;;5.53;2.92;;;;;;;25.66;50.43;99858.03;5061862;28;20029;-73
2022/08/03 06:28:11;;;;;;;13.02;3.35;;;;;;;25.75;49.56;99856.47;5061317;28;20327;-73
2022/08/03 06:30:36;;;;;;;10.45;3.08;;;;;;;25.88;48.88;99850.63;5061946;28;20037;-73
2022/08/03 06:33:02;;;;;;;6.90;2.53;;;;;;;25.75;49.19;99857.31;5061751;28;20074;-73
2022/08/03 06:35:27;;;;;;;9.45;3.28;;;;;;;25.78;49.21;99845.94;5061243;28;20037;-73
2022/08/03 06:37:53;;;;;;;4.43;2.70;;;;;;;26.00;48.54;99850.44;5061676;28;20021;-73
2022/08/03 06:40:30;;;;;;;8.48;2.67;;;;;;;26.01;48.12;99855.63;5061677;28;20037;-73
2022/08/03 06:43:02;;;;;;;4.32;2.40;;;;;;;26.15;47.89;99856.00;5061367;28;20287;-73
2022/08/03 06:45:28;;;;;;;8.00;3.20;;;;;;;26.54;47.11;99856.53;5061590;28;20104;-73
2022/08/03 06:48:09;;;;;;;8.77;3.40;;;;;;;26.91;46.30;99855.59;5061830;28;20063;-73
2022/08/03 06:50:36;;;;;;;6.80;3.47;;;;;;;27.11;45.21;99844.03;5061304;28;20029;-73
2022/08/03 06:53:03;;;;;;;6.60;2.70;;;;;;;27.42;44.55;99851.16;5061649;28;20045;-73
2022/08/03 06:55:29;;;;;;;11.48;2.70;;;;;;;27.43;44.11;99847.34;5061331;28;20048;-73
2022/08/03 06:57:55;;;;;;;8.70;3.45;;;;;;;27.47;43.67;99847.63;5060069;28;20028;-73
2022/08/03 07:00:20;;;;;;;6.35;3.08;;;;;;;27.51;44.20;99854.97;5061512;28;20053;-73
2022/08/03 07:02:47;;;;;;;10.00;3.20;;;;;;;27.56;43.72;99846.00;5061566;28;20035;-73
2022/08/03 07:05:13;;;;;;;5.90;3.38;;;;;;;27.73;43.48;99843.84;5060817;28;20029;-73
2022/08/03 07:07:39;;;;;;;7.95;3.17;;;;;;;28.08;42.47;99847.63;5061594;28;20040;-73
2022/08/03 07:10:05;;;;;;;7.50;2.83;;;;;;;28.43;41.97;99846.78;5061070;28;20233;-73
2022/08/03 07:12:31;;;;;;;4.93;2.53;;;;;;;29.00;40.40;99845.50;5061043;28;20033;-73
2022/08/03 07:14:58;;;;;;;3.95;2.53;;;;;;;29.11;40.19;99836.16;5060165;28;20037;-73
2022/08/03 07:17:24;;;;;;;6.53;3.58;;;;;;;28.63;40.22;99844.00;5062545;28;20029;-73
2022/08/03 07:19:49;;;;;;;6.75;2.67;;;;;;;28.73;40.24;99841.22;5065732;28;20135;-73
2022/08/03 07:22:15;;;;;;;4.57;2.15;;;;;;;28.93;39.97;99849.34;5065008;28;20024;-73
2022/08/03 07:24:44;;;;;;;6.88;2.33;;;;;;;29.52;37.96;99842.22;5065376;28;20368;-73
2022/08/03 07:27:10;;;;;;;8.57;2.55;;;;;;;29.67;37.23;99830.38;5065249;28;20079;-74
2022/08/03 07:29:35;;;;;;;5.63;2.58;;;;;;;29.83;37.73;99845.50;5064342;28;20254;-73
2022/08/03 07:32:04;;;;;;;5.57;2.70;;;;;;;29.83;37.48;99846.31;5065317;28;20028;-73
2022/08/03 07:34:30;;;;;;;7.00;2.70;;;;;;;29.69;38.16;99836.34;5063862;28;20143;-74
2022/08/03 07:36:56;;;;;;;3.90;2.33;;;;;;;30.09;37.36;99833.28;5065010;28;20075;-73
2022/08/03 07:39:22;;;;;;;6.70;2.80;;;;;;;30.72;36.68;99848.75;5064816;28;20037;-74
2022/08/03 07:41:50;;;;;;;3.95;3.22;;;;;;;30.40;37.43;99843.91;5064955;28;20036;-73
2022/08/03 07:44:19;;;;;;;4.03;2.50;;;;;;;29.74;37.70;99847.22;5063288;28;20060;-74
2022/08/03 07:46:44;;;;;;;5.13;2.72;;;;;;;29.73;37.69;99856.50;5065076;28;20032;-73
2022/08/03 07:49:10;;;;;;;5.95;3.03;;;;;;;29.74;37.52;99845.31;5064926;28;20040;-73
2022/08/03 07:51:36;;;;;;;9.45;3.35;;;;;;;29.83;38.97;99851.78;5064336;28;20029;-73
2022/08/03 07:54:02;;;;;;;7.03;3.03;;;;;;;30.07;38.55;99851.03;5064832;28;20042;-73
2022/08/03 07:56:27;;;;;;;4.75;3.22;;;;;;;30.10;38.85;99854.00;5064485;28;20029;-73
2022/08/03 07:58:53;;;;;;;166.98;12.93;;;;;;;30.11;38.25;99854.81;5064382;28;20025;-74
2022/08/03 08:01:19;;;;;;;4.90;2.95;;;;;;;29.96;39.60;99863.13;5064680;28;20074;-74
2022/08/03 08:03:46;;;;;;;4.30;2.90;;;;;;;30.04;38.20;99862.53;5064518;28;20037;-73
2022/08/03 08:06:11;;;;;;;4.45;3.33;;;;;;;30.13;38.00;99869.81;5064407;28;20036;-73
2022/08/03 08:08:38;;;;;;;6.45;3.13;;;;;;;30.06;39.22;99863.88;5064431;28;20045;-73
2022/08/03 08:11:04;;;;;;;6.13;3.25;;;;;;;29.81;39.63;99859.44;5064314;28;20021;-73
2022/08/03 08:13:30;;;;;;;5.38;3.00;;;;;;;29.75;39.80;99857.03;5064070;28;20214;-73
2022/08/03 08:15:56;;;;;;;5.13;2.97;;;;;;;30.03;39.30;99861.72;5064321;28;20052;-73
2022/08/03 08:18:22;;;;;;;3.20;2.70;;;;;;;30.30;37.93;99868.59;5064251;28;20040;-73
2022/08/03 08:20:49;;;;;;;9.55;3.38;;;;;;;30.30;37.47;99865.88;5063824;28;20025;-73
2022/08/03 08:23:14;;;;;;;8.00;3.03;;;;;;;30.25;38.20;99861.28;5064097;28;20056;-73
2022/08/03 08:25:40;;;;;;;6.70;3.45;;;;;;;30.43;37.79;99857.78;5079586;28;20402;-73
2022/08/03 08:28:05;;;;;;;6.57;3.28;;;;;;;30.32;37.99;99852.72;5062025;28;20032;-73
2022/08/03 08:30:32;;;;;;;5.07;3.33;;;;;;;30.28;38.29;99852.50;5064005;28;20037;-73
2022/08/03 08:32:58;;;;;;;10.90;4.18;;;;;;;30.29;37.90;99845.94;5063918;28;20342;-73
2022/08/03 08:35:24;;;;;;;7.10;3.42;;;;;;;30.52;38.01;99847.03;5063458;28;20055;-74
2022/08/03 08:37:49;;;;;;;4.45;3.85;;;;;;;30.79;37.57;99835.53;5063756;28;20056;-73
2022/08/03 08:40:14;;;;;;;5.47;3.33;;;;;;;31.08;37.04;99841.69;5063862;28;20024;-73
2022/08/03 08:42:42;;;;;;;6.53;3.45;;;;;;;31.29;36.00;99847.72;5063480;28;20036;-73
2022/08/03 08:45:09;;;;;;;8.43;3.50;;;;;;;31.50;36.09;99855.63;5063895;28;20087;-73
2022/08/03 08:47:38;;;;;;;4.85;3.60;;;;;;;31.06;37.07;99849.38;5063906;28;20028;-73
2022/08/03 08:50:06;;;;;;;4.22;3.53;;;;;;;30.93;36.52;99847.38;5062994;28;20051;-73
2022/08/03 08:52:33;;;;;;;7.65;3.38;;;;;;;31.01;37.09;99843.97;5063741;28;20033;-73
2022/08/03 08:55:02;;;;;;;8.63;3.60;;;;;;;31.30;36.51;99846.63;5063270;28;20040;-74
2022/08/03 08:57:36;;;;;;;8.27;3.28;;;;;;;31.67;35.35;99840.28;5063459;28;20033;-73
2022/08/03 09:00:02;;;;;;;;;;;;;;;32.08;36.48;99834.94;5064442;28;20112;-73
2022/08/03 09:02:29;;;;;;;5.07;3.00;;;;;;;32.38;35.02;99830.88;5063606;28;19908;-73
2022/08/03 09:04:56;;;;;;;5.88;3.70;;;;;;;32.33;34.84;99836.44;5063283;28;20033;-73
2022/08/03 09:07:21;;;;;;;10.55;4.03;;;;;;;31.72;35.95;99837.50;5063394;28;20092;-73
2022/08/03 09:09:47;;;;;;;7.20;3.50;;;;;;;31.34;36.33;99835.91;5063098;28;20037;-73
2022/08/03 09:12:13;;;;;;;8.55;4.18;;;;;;;31.22;36.37;99839.09;5063383;28;20025;-74
2022/08/03 09:14:39;;;;;;;4.93;3.63;;;;;;;31.02;36.38;99834.66;5062955;28;20326;-74
2022/08/03 09:17:04;;;;;;;9.63;4.05;;;;;;;31.15;36.78;99838.63;5063221;28;20043;-74
2022/08/03 09:19:32;;;;;;;6.63;4.60;;;;;;;30.94;37.75;99835.31;5063318;28;20033;-74
2022/08/03 09:22:11;;;;;;;9.43;4.32;;;;;;;30.99;37.84;99834.44;5063034;28;20035;-73
2022/08/03 09:24:53;;;;;;;11.63;5.43;;;;;;;31.24;36.86;99827.84;5063078;28;20284;-73
2022/08/03 09:27:19;;;;;;;4.38;3.78;;;;;;;31.36;36.77;99831.75;5063128;28;20253;-73
2022/08/03 09:29:52;;;;;;;4.57;3.60;;;;;;;31.58;35.99;99819.38;5062351;28;20128;-74
2022/08/03 09:32:24;;;;;;;6.60;3.45;;;;;;;31.41;36.08;99826.22;5062974;28;20044;-73
2022/08/03 09:34:51;;;;;;;4.50;3.22;;;;;;;31.04;37.07;99821.50;5062820;28;20055;-73
2022/08/03 09:37:18;;;;;;;4.60;3.80;;;;;;;30.68;38.73;99828.56;5062943;28;20037;-73
2022/08/03 09:39:45;;;;;;;5.72;3.88;;;;;;;30.16;38.76;99825.56;5062255;28;20082;-73
2022/08/03 09:42:18;;;;;;;5.40;3.60;;;;;;;30.23;38.66;99827.16;5062808;28;20024;-73
2022/08/03 09:44:49;;;;;;;8.98;3.72;;;;;;;30.34;37.81;99817.75;5059950;28;20067;-73
2022/08/03 09:47:39;;;;;;;8.57;3.55;;;;;;;30.74;38.74;99820.00;5055300;28;20100;-73
2022/08/03 09:50:07;;;;;;;7.03;3.58;;;;;;;30.63;37.40;99818.50;5058233;28;20302;-73
2022/08/03 09:52:35;;;;;;;6.03;3.40;;;;;;;30.60;37.82;99813.63;5057428;28;20125;-73
2022/08/03 09:55:07;;;;;;;4.85;3.50;;;;;;;30.31;38.21;99789.09;5058660;28;20256;-73
2022/08/03 09:57:32;;;;;;;5.25;3.45;;;;;;;30.45;37.84;99808.31;5058212;28;20242;-73
2022/08/03 10:00:09;;;;;;;6.72;3.30;;;;;;;30.49;37.32;99796.53;5061172;28;20037;-73
2022/08/03 10:02:36;;;;;;;6.25;3.67;;;;;;;30.69;37.29;99797.41;5060048;28;20040;-73
2022/08/03 10:05:03;;;;;;;5.45;3.33;;;;;;;30.85;36.72;99793.34;5061987;28;20044;-73
2022/08/03 10:07:28;;;;;;;9.63;3.72;;;;;;;30.87;36.42;99791.13;5058543;28;20040;-73
2022/08/03 10:09:54;;;;;;;7.97;3.20;;;;;;;30.71;37.60;99796.00;5057105;28;20040;-73
2022/08/03 10:12:20;;;;;;;9.23;3.45;;;;;;;30.92;36.42;99788.31;5058358;28;20041;-73
2022/08/03 10:14:46;;;;;;;5.10;3.10;;;;;;;31.24;37.08;99786.81;5056951;28;20256;-73
2022/08/03 10:17:12;;;;;;;7.78;3.20;;;;;;;31.45;36.74;99779.91;5058124;28;20437;-73
2022/08/03 10:19:38;;;;;;;4.63;3.42;;;;;;;31.34;35.74;99784.72;5056564;28;20082;-73
2022/08/03 10:22:14;;;;;;;4.55;3.00;;;;;;;31.29;37.15;99786.75;5059626;28;20032;-73
2022/08/03 10:24:48;;;;;;;5.80;3.47;;;;;;;31.03;35.83;99789.00;5060845;28;20369;-73
2022/08/03 10:27:15;;;;;;;5.35;3.15;;;;;;;31.16;36.05;99780.06;5057894;28;20238;-73
2022/08/03 10:29:46;;;;;;;5.78;3.88;;;;;;;31.21;35.27;99779.19;5060623;28;20040;-73
2022/08/03 10:32:18;;;;;;;4.80;3.33;;;;;;;31.23;35.73;99790.66;5059413;28;21463;-73
2022/08/03 10:34:45;;;;;;;13.63;3.83;;;;;;;31.13;36.40;99777.91;5056902;28;20261;-73
2022/08/03 10:37:13;;;;;;;5.63;3.90;;;;;;;31.16;35.98;99779.25;5057971;28;20033;-73
2022/08/03 10:39:52;;;;;;;11.65;4.63;;;;;;;31.21;35.68;99781.91;5056232;28;20032;-73
2022/08/03 10:42:19;;;;;;;9.95;3.65;;;;;;;31.06;36.11;99772.00;5054376;28;20100;-74
2022/08/03 10:44:47;;;;;;;9.82;3.90;;;;;;;31.03;36.01;99775.31;5057703;28;20304;-73
2022/08/03 10:47:13;;;;;;;10.15;3.38;;;;;;;31.12;35.42;99770.78;5057614;28;20230;-74
2022/08/03 10:49:39;;;;;;;9.25;4.18;;;;;;;31.37;35.51;99769.63;5060424;28;20095;-73
2022/08/03 10:52:05;;;;;;;6.90;3.50;;;;;;;31.27;35.77;99762.41;5061567;28;20096;-74
2022/08/03 10:57:33;;;;;;;8.90;4.93;;;;;;;31.17;35.60;99765.28;5064505;28;20038;-74
2022/08/03 10:57:45;;;;;;;13.02;9.00;;;;;;;31.32;35.63;99758.78;5064230;28;20044;-73
2022/08/03 11:00:18;;;;;;;5.40;2.90;;;;;;;31.32;35.04;99759.59;5065340;28;20336;-73
2022/08/03 11:03:20;;;;;;;8.00;3.90;;;;;;;31.52;34.85;99750.22;5067390;28;20301;-74
2022/08/03 11:05:48;;;;;;;7.85;3.88;;;;;;;31.30;35.12;99750.06;5063746;28;20162;-73
2022/08/03 11:08:33;;;;;;;7.45;2.70;;;;;;;31.46;34.38;99750.63;5063097;28;20074;-73
2022/08/03 11:11:27;;;;;;;4.47;2.72;;;;;;;31.25;35.35;99753.69;5076929;28;20257;-73
2022/08/03 11:14:07;;;;;;;2.97;2.47;;;;;;;31.58;33.38;99735.34;5062711;28;20118;-75
2022/08/03 11:16:38;;;;;;;4.70;2.70;;;;;;;31.87;33.12;99740.59;5063676;28;20243;-73
2022/08/03 11:19:05;;;;;;;5.00;2.95;;;;;;;31.69;33.35;99738.72;5062758;28;20046;-73
2022/08/03 11:21:52;;;;;;;9.10;3.20;;;;;;;31.61;34.50;99734.75;5065008;28;20037;-73
2022/08/03 11:24:35;;;;;;;4.68;3.17;;;;;;;31.69;34.67;99727.75;5066570;28;20057;-74
2022/08/03 11:27:13;;;;;;;6.88;3.50;;;;;;;31.71;35.67;99720.09;5062617;28;20029;-72
2022/08/03 11:30:09;;;;;;;4.55;2.95;;;;;;;31.97;35.67;99726.69;5061086;28;20048;-73
2022/08/03 11:32:42;;;;;;;5.05;3.55;;;;;;;31.92;35.17;99724.06;5064097;28;20322;-72
2022/08/03 11:35:10;;;;;;;3.67;3.10;;;;;;;32.10;34.59;99718.78;5062297;28;20078;-72
2022/08/03 11:38:07;;;;;;;6.25;2.88;;;;;;;32.17;34.46;99708.22;5062909;28;20336;-72
2022/08/03 11:40:42;;;;;;;4.45;2.90;;;;;;;32.32;34.27;99708.78;5061685;28;20336;-72
2022/08/03 11:43:08;;;;;;;3.20;2.90;;;;;;;32.21;34.36;99701.81;5066660;28;20243;-72
2022/08/03 11:45:35;;;;;;;27.05;5.25;;;;;;;32.29;34.65;99703.91;5064238;28;20219;-72